createdAt,value
2023-08-07T00:00:15.184Z,14.20
2023-08-07T00:05:18.910Z,14.10
2023-08-07T00:10:22.171Z,14.00
2023-08-07T00:15:26.778Z,13.90
2023-08-07T00:20:30.023Z,13.90
2023-08-07T00:25:33.291Z,13.90
2023-08-07T00:30:37.873Z,14.10
2023-08-07T00:35:41.081Z,14.00
2023-08-07T00:40:44.266Z,14.00
2023-08-07T00:45:49.614Z,13.80
2023-08-07T00:50:53.554Z,13.70
2023-08-07T00:55:57.149Z,13.70
2023-08-07T01:01:01.793Z,13.70
2023-08-07T01:06:05.869Z,13.80
2023-08-07T01:11:19.042Z,13.90
2023-08-07T01:16:29.073Z,13.80
2023-08-07T01:21:34.646Z,13.90
2023-08-07T01:26:40.009Z,13.90
2023-08-07T01:31:44.460Z,13.70
2023-08-07T01:36:47.928Z,13.50
2023-08-07T01:41:52.935Z,13.40
2023-08-07T01:46:56.297Z,13.40
2023-08-07T01:51:59.664Z,13.10
2023-08-07T01:57:04.634Z,13.00
2023-08-07T02:02:07.983Z,12.90
2023-08-07T02:07:11.192Z,12.90
2023-08-07T02:12:15.775Z,13.00
2023-08-07T02:17:19.010Z,12.90
2023-08-07T02:22:22.190Z,12.90
2023-08-07T02:27:26.757Z,12.90
2023-08-07T02:32:29.997Z,12.90
2023-08-07T02:37:33.222Z,12.70
2023-08-07T02:42:37.819Z,12.50
2023-08-07T02:47:41.089Z,12.50
2023-08-07T02:52:46.051Z,12.60
2023-08-07T02:57:50.799Z,12.60
2023-08-07T03:02:54.069Z,12.20
2023-08-07T03:07:57.326Z,12.20
2023-08-07T03:13:02.280Z,12.10
2023-08-07T03:18:05.509Z,12.00
2023-08-07T03:23:08.794Z,11.90
2023-08-07T03:28:13.391Z,11.80
2023-08-07T03:33:16.585Z,11.80
2023-08-07T03:38:19.824Z,11.50
2023-08-07T03:43:24.407Z,11.20
2023-08-07T03:48:27.707Z,11.30
2023-08-07T03:53:30.929Z,11.20
2023-08-07T03:58:35.525Z,11.30
2023-08-07T04:03:39.823Z,11.10
2023-08-07T04:08:43.120Z,11.00
2023-08-07T04:13:47.808Z,11.00
2023-08-07T04:18:51.007Z,10.90
2023-08-07T04:23:54.238Z,10.90
2023-08-07T04:28:59.378Z,10.70
2023-08-07T04:34:02.591Z,10.80
2023-08-07T04:39:05.954Z,10.90
2023-08-07T04:44:10.565Z,10.80
2023-08-07T04:49:13.770Z,10.80
2023-08-07T04:54:16.963Z,10.90
2023-08-07T04:59:21.577Z,11.20
2023-08-07T05:04:24.774Z,11.80
2023-08-07T05:09:28.006Z,11.80
2023-08-07T05:14:32.891Z,12.00
2023-08-07T05:19:36.090Z,12.40
2023-08-07T05:24:40.764Z,12.40
2023-08-07T05:29:45.636Z,12.70
2023-08-07T05:34:48.864Z,13.50
2023-08-07T05:39:52.180Z,13.90
2023-08-07T05:44:56.766Z,14.00
2023-08-07T05:49:59.934Z,14.40
2023-08-07T05:55:04.937Z,14.90
2023-08-07T06:00:15.258Z,15.80
2023-08-07T06:05:18.805Z,17.90
2023-08-07T06:10:22.060Z,18.10
2023-08-07T06:15:26.666Z,20.90
2023-08-07T06:20:29.917Z,19.80
2023-08-07T06:25:33.145Z,17.60
2023-08-07T06:30:40.773Z,17.20
2023-08-07T06:35:44.810Z,17.00
2023-08-07T06:40:48.517Z,16.80
2023-08-07T06:45:53.548Z,16.70
2023-08-07T06:50:56.809Z,16.40
2023-08-07T06:56:00.112Z,16.90
2023-08-07T07:01:04.813Z,17.40
2023-08-07T07:06:08.016Z,17.10
2023-08-07T07:11:11.857Z,17.40
2023-08-07T07:16:16.509Z,17.60
2023-08-07T07:21:19.818Z,17.70
2023-08-07T07:26:23.024Z,18.00
2023-08-07T07:31:27.782Z,18.00
2023-08-07T07:36:31.285Z,18.30
2023-08-07T07:41:34.698Z,18.50
2023-08-07T07:46:40.628Z,18.70
2023-08-07T07:51:45.813Z,18.60
2023-08-07T07:56:49.044Z,18.50
2023-08-07T08:01:53.670Z,18.70
2023-08-07T08:06:57.357Z,19.10
2023-08-07T08:12:00.773Z,18.60
2023-08-07T08:17:05.904Z,18.20
2023-08-07T08:22:10.300Z,18.90
2023-08-07T08:27:13.444Z,19.20
2023-08-07T08:32:18.074Z,18.40
2023-08-07T08:37:21.413Z,18.40
2023-08-07T08:42:25.046Z,18.50
2023-08-07T08:47:29.747Z,18.30
2023-08-07T08:52:33.620Z,18.40
2023-08-07T08:57:37.441Z,18.50
2023-08-07T09:02:42.290Z,18.90
2023-08-07T09:07:47.796Z,18.30
2023-08-07T09:12:55.810Z,18.40
2023-08-07T09:18:00.751Z,18.50
2023-08-07T09:23:04.023Z,19.80
2023-08-07T09:28:07.944Z,20.30
2023-08-07T09:33:12.573Z,20.20
2023-08-07T09:38:16.374Z,19.40
2023-08-07T09:43:23.496Z,19.30
2023-08-07T09:48:28.991Z,18.90
2023-08-07T09:53:32.788Z,18.50
2023-08-07T09:58:36.000Z,18.80
2023-08-07T10:03:41.473Z,19.50
2023-08-07T10:08:45.975Z,20.10
2023-08-07T10:13:49.950Z,20.70
2023-08-07T10:18:54.534Z,20.10
2023-08-07T10:23:58.209Z,20.10
2023-08-07T10:29:03.213Z,19.70
2023-08-07T10:34:07.872Z,19.80
2023-08-07T10:39:12.563Z,19.90
2023-08-07T10:44:22.455Z,19.60
2023-08-07T10:49:35.355Z,20.00
2023-08-07T10:54:44.905Z,20.20
2023-08-07T10:59:52.245Z,20.20
2023-08-07T11:04:57.885Z,20.00
2023-08-07T11:10:01.478Z,19.70
2023-08-07T11:15:05.133Z,19.60
2023-08-07T11:20:12.064Z,20.50
2023-08-07T11:25:16.764Z,20.90
2023-08-07T11:30:20.038Z,20.70
2023-08-07T11:35:24.932Z,20.10
2023-08-07T11:40:28.161Z,20.40
2023-08-07T11:45:31.700Z,20.20
2023-08-07T11:50:36.686Z,20.10
2023-08-07T11:55:48.958Z,19.70
2023-08-07T12:00:52.512Z,19.70
2023-08-07T12:05:58.323Z,19.60
2023-08-07T12:11:03.525Z,19.70
2023-08-07T12:16:07.193Z,19.50
2023-08-07T12:21:12.217Z,19.40
2023-08-07T12:26:15.419Z,19.70
2023-08-07T12:31:19.952Z,20.40
2023-08-07T12:36:24.572Z,20.50
2023-08-07T12:46:36.133Z,21.70
2023-08-07T12:51:42.041Z,20.80
2023-08-07T12:56:45.317Z,20.40
2023-08-07T13:01:48.564Z,20.30
2023-08-07T13:06:53.235Z,20.00
2023-08-07T13:11:56.778Z,20.30
2023-08-07T13:17:00.342Z,20.30
2023-08-07T13:22:05.542Z,21.00
2023-08-07T13:27:08.858Z,21.00
2023-08-07T13:32:12.196Z,20.80
2023-08-07T13:37:17.198Z,21.00
2023-08-07T13:42:20.404Z,20.90
2023-08-07T13:47:25.531Z,20.30
2023-08-07T13:52:31.745Z,19.90
2023-08-07T13:57:35.544Z,19.60
2023-08-07T14:02:38.782Z,19.70
2023-08-07T14:07:43.435Z,20.00
2023-08-07T14:12:47.993Z,20.20
2023-08-07T14:17:52.202Z,20.90
2023-08-07T14:23:05.647Z,21.60
2023-08-07T14:28:15.750Z,21.90
2023-08-07T14:33:19.353Z,21.30
2023-08-07T14:38:24.011Z,20.90
2023-08-07T14:43:27.492Z,20.60
2023-08-07T14:48:30.822Z,20.40
2023-08-07T14:53:36.695Z,20.60
2023-08-07T14:58:39.952Z,21.00
2023-08-07T15:03:43.230Z,20.90
2023-08-07T15:08:47.858Z,21.30
2023-08-07T15:13:51.109Z,21.90
2023-08-07T15:18:54.310Z,21.60
2023-08-07T15:23:58.910Z,21.40
2023-08-07T15:29:02.182Z,21.30
2023-08-07T15:34:05.506Z,21.40
2023-08-07T15:39:10.175Z,21.40
2023-08-07T15:44:13.361Z,21.00
2023-08-07T15:49:16.616Z,20.80
2023-08-07T15:54:21.618Z,20.40
2023-08-07T15:59:27.999Z,20.40
2023-08-07T16:04:31.287Z,20.10
2023-08-07T16:09:35.920Z,19.90
2023-08-07T16:14:39.652Z,19.90
2023-08-07T16:19:43.087Z,20.10
2023-08-07T16:24:48.749Z,20.10
2023-08-07T16:29:52.001Z,20.10
2023-08-07T16:34:55.245Z,20.00
2023-08-07T16:40:00.289Z,19.90
2023-08-07T16:45:04.956Z,19.90
2023-08-07T16:50:09.357Z,19.90
2023-08-07T16:55:14.970Z,19.60
2023-08-07T17:00:18.876Z,19.50
2023-08-07T17:05:24.183Z,19.50
2023-08-07T17:10:28.837Z,19.40
2023-08-07T17:15:35.066Z,19.40
2023-08-07T17:20:38.291Z,19.40
2023-08-07T17:25:43.093Z,19.50
2023-08-07T17:30:46.364Z,19.50
2023-08-07T17:35:49.586Z,19.50
2023-08-07T17:40:55.316Z,19.50
2023-08-07T17:45:59.545Z,19.30
2023-08-07T17:51:02.856Z,19.10
2023-08-07T17:56:07.626Z,19.10
2023-08-07T18:01:11.005Z,19.00
2023-08-07T18:06:15.359Z,18.90
2023-08-07T18:11:20.048Z,18.80
2023-08-07T18:16:24.282Z,18.70
2023-08-07T18:21:27.611Z,18.40
2023-08-07T18:26:32.510Z,18.30
2023-08-07T18:31:35.892Z,18.10
2023-08-07T18:36:40.723Z,18.00
2023-08-07T18:41:45.355Z,17.70
2023-08-07T18:46:48.608Z,17.50
2023-08-07T18:51:51.794Z,17.30
2023-08-07T18:56:56.697Z,17.20
2023-08-07T19:02:00.525Z,16.90
2023-08-07T19:07:03.902Z,16.60
2023-08-07T19:12:09.776Z,16.10
2023-08-07T19:17:13.068Z,16.10
2023-08-07T19:22:16.540Z,16.20
2023-08-07T19:27:21.247Z,16.00
2023-08-07T19:32:24.505Z,15.80
2023-08-07T19:37:27.742Z,15.90
2023-08-07T19:42:32.662Z,15.80
2023-08-07T19:47:37.365Z,15.80
2023-08-07T19:52:40.702Z,15.70
2023-08-07T19:57:45.468Z,15.60
2023-08-07T20:02:48.746Z,15.40
2023-08-07T20:07:51.963Z,15.30
2023-08-07T20:12:56.598Z,15.30
2023-08-07T20:17:59.883Z,15.40
2023-08-07T20:23:03.887Z,15.30
2023-08-07T20:28:08.857Z,15.30
2023-08-07T20:33:12.525Z,15.20
2023-08-07T20:38:15.725Z,15.20
2023-08-07T20:43:20.624Z,15.10
2023-08-07T20:48:23.914Z,15.00
2023-08-07T20:53:27.188Z,14.80
2023-08-07T20:58:34.136Z,14.70
2023-08-07T21:03:37.438Z,14.70
2023-08-07T21:08:40.739Z,14.60
2023-08-07T21:13:45.426Z,14.50
2023-08-07T21:18:48.712Z,14.40
2023-08-07T21:23:51.901Z,14.40
2023-08-07T21:28:56.552Z,14.20
2023-08-07T21:34:00.214Z,14.10
2023-08-07T21:39:03.442Z,13.90
2023-08-07T21:44:08.641Z,13.70
2023-08-07T21:49:11.905Z,13.60
2023-08-07T21:54:15.089Z,13.30
2023-08-07T21:59:19.673Z,13.20
2023-08-07T22:04:22.925Z,13.20
2023-08-07T22:09:26.424Z,13.20
2023-08-07T22:14:30.961Z,13.00
2023-08-07T22:19:34.178Z,13.10
2023-08-07T22:24:37.425Z,13.20
2023-08-07T22:29:42.043Z,13.00
2023-08-07T22:34:45.272Z,13.00
2023-08-07T22:39:48.765Z,13.00
2023-08-07T22:44:53.345Z,12.90
2023-08-07T22:49:56.540Z,12.50
2023-08-07T22:54:59.732Z,12.30
2023-08-07T23:00:05.770Z,12.30
2023-08-07T23:05:10.313Z,12.30
2023-08-07T23:10:14.192Z,12.60
2023-08-07T23:15:18.961Z,12.70
2023-08-07T23:20:22.402Z,12.50
2023-08-07T23:25:25.627Z,12.50
2023-08-07T23:30:30.831Z,12.10
2023-08-07T23:35:34.082Z,11.90
2023-08-07T23:40:39.163Z,12.10
2023-08-07T23:45:43.802Z,12.00
2023-08-07T23:50:47.258Z,11.90
2023-08-07T23:55:50.536Z,11.80
